createdAt,value
2018-07-25T04:26:48.130Z,15.10
2018-07-25T04:29:16.535Z,22.17
2018-07-25T04:31:45.120Z,14.53
2018-07-25T04:34:13.510Z,19.80
2018-07-25T04:36:42.073Z,17.93
2018-07-25T04:39:12.494Z,17.73
2018-07-25T04:41:42.117Z,15.47
2018-07-25T04:44:11.627Z,16.97
2018-07-25T04:46:40.785Z,15.63
2018-07-25T04:49:09.136Z,15.53
2018-07-25T04:51:37.949Z,14.00
2018-07-25T04:54:06.359Z,13.53
2018-07-25T04:56:34.756Z,13.40
2018-07-25T04:59:03.449Z,15.23
2018-07-25T05:01:32.038Z,13.63
2018-07-25T05:04:00.438Z,13.10
2018-07-25T05:06:28.841Z,16.13
2018-07-25T05:08:57.244Z,13.20
2018-07-25T05:11:25.820Z,14.73
2018-07-25T05:13:54.221Z,18.57
2018-07-25T05:16:22.618Z,13.53
2018-07-25T05:18:51.006Z,12.57
2018-07-25T05:21:19.505Z,13.03
2018-07-25T05:23:47.939Z,17.13
2018-07-25T05:26:16.686Z,12.90
2018-07-25T05:28:45.092Z,14.47
2018-07-25T05:31:13.524Z,11.77
2018-07-25T05:33:42.322Z,11.50
2018-07-25T05:36:10.717Z,12.90
2018-07-25T05:38:39.114Z,15.23
2018-07-25T05:41:07.548Z,13.87
2018-07-25T05:43:36.008Z,13.93
2018-07-25T05:46:04.421Z,15.60
2018-07-25T05:48:32.820Z,13.60
2018-07-25T05:51:01.214Z,13.93
2018-07-25T05:53:29.674Z,13.77
2018-07-25T05:55:58.093Z,12.43
2018-07-25T05:58:26.543Z,13.80
2018-07-25T06:00:55.485Z,14.57
2018-07-25T06:03:24.509Z,12.37
2018-07-25T06:05:57.244Z,15.27
2018-07-25T06:08:29.521Z,11.90
2018-07-25T06:10:58.659Z,18.20
2018-07-25T06:13:27.461Z,12.40
2018-07-25T06:15:55.960Z,12.73
2018-07-25T06:18:24.376Z,12.47
2018-07-25T06:20:52.774Z,12.93
2018-07-25T06:23:21.710Z,13.20
2018-07-25T06:25:50.160Z,14.80
2018-07-25T06:28:18.551Z,14.20
2018-07-25T06:30:46.952Z,13.20
2018-07-25T06:33:15.396Z,12.90
2018-07-25T06:35:43.826Z,14.17
2018-07-25T06:38:15.470Z,12.97
2018-07-25T06:40:43.862Z,14.00
2018-07-25T06:43:13.091Z,16.67
2018-07-25T06:45:41.510Z,12.90
2018-07-25T06:48:09.919Z,13.87
2018-07-25T06:50:38.339Z,12.80
2018-07-25T06:53:06.726Z,13.30
2018-07-25T06:55:35.138Z,15.37
2018-07-25T06:58:03.538Z,13.63
2018-07-25T07:00:32.381Z,13.00
2018-07-25T07:03:00.778Z,12.43
2018-07-25T07:05:29.215Z,15.63
2018-07-25T07:07:58.468Z,13.80
2018-07-25T07:10:26.870Z,13.00
2018-07-25T07:12:55.315Z,13.50
2018-07-25T07:15:24.100Z,12.57
2018-07-25T07:17:52.499Z,13.60
2018-07-25T07:20:23.087Z,13.43
2018-07-25T07:22:51.494Z,12.43
2018-07-25T07:25:19.888Z,10.70
2018-07-25T07:27:48.283Z,13.17
2018-07-25T07:30:16.486Z,11.10
2018-07-25T07:32:44.884Z,13.47
2018-07-25T07:35:14.020Z,13.07
2018-07-25T07:37:42.486Z,12.33
2018-07-25T07:40:10.841Z,13.83
2018-07-25T07:42:39.850Z,14.40
2018-07-25T07:45:09.984Z,12.50
2018-07-25T07:47:38.422Z,12.13
2018-07-25T07:50:06.864Z,14.50
2018-07-25T07:52:35.315Z,13.63
2018-07-25T07:55:04.989Z,11.20
2018-07-25T07:57:33.395Z,11.00
2018-07-25T08:00:01.809Z,11.67
2018-07-25T08:02:30.621Z,12.83
2018-07-25T08:04:59.082Z,12.97
2018-07-25T08:07:27.819Z,14.47
2018-07-25T08:09:56.867Z,14.33
2018-07-25T08:12:25.945Z,16.03
2018-07-25T08:14:55.097Z,14.10
2018-07-25T08:17:23.593Z,14.13
2018-07-25T08:19:52.042Z,13.33
2018-07-25T08:22:20.496Z,13.90
2018-07-25T08:24:48.934Z,14.07
2018-07-25T08:27:17.332Z,13.27
2018-07-25T08:29:45.784Z,12.40
2018-07-25T08:32:15.885Z,12.13
2018-07-25T08:34:44.361Z,12.63
2018-07-25T08:37:12.986Z,14.00
2018-07-25T08:39:41.693Z,13.40
2018-07-25T08:42:10.307Z,11.57
2018-07-25T08:44:38.731Z,11.53
2018-07-25T08:47:07.190Z,13.57
2018-07-25T08:49:35.611Z,11.90
2018-07-25T08:52:04.027Z,10.43
2018-07-25T08:54:32.432Z,10.40
2018-07-25T08:57:01.073Z,12.17
2018-07-25T08:59:29.486Z,10.57
2018-07-25T09:01:57.931Z,13.10
2018-07-25T09:04:26.330Z,12.57
2018-07-25T09:06:54.742Z,11.00
2018-07-25T09:09:23.159Z,12.20
2018-07-25T09:11:51.948Z,12.97
2018-07-25T09:14:20.383Z,12.30
2018-07-25T09:16:48.829Z,12.37
2018-07-25T09:19:17.295Z,9.73
2018-07-25T09:21:45.864Z,8.93
2018-07-25T09:24:14.285Z,11.40
2018-07-25T09:26:42.846Z,15.80
2018-07-25T09:29:11.459Z,11.70
2018-07-25T09:31:39.874Z,10.77
2018-07-25T09:34:08.312Z,16.73
2018-07-25T09:36:36.717Z,13.07
2018-07-25T09:39:08.977Z,13.93
2018-07-25T09:41:37.432Z,13.67
2018-07-25T09:44:05.879Z,12.67
2018-07-25T09:46:34.969Z,12.87
2018-07-25T09:49:03.405Z,13.30
2018-07-25T09:51:31.800Z,14.87
2018-07-25T09:54:00.219Z,12.60
2018-07-25T09:56:28.643Z,10.90
2018-07-25T09:58:57.091Z,10.80
2018-07-25T10:01:32.870Z,10.67
2018-07-25T10:04:01.290Z,8.30
2018-07-25T10:06:29.694Z,12.13
2018-07-25T10:08:58.808Z,10.40
2018-07-25T10:11:27.225Z,10.03
2018-07-25T10:13:56.936Z,10.33
2018-07-25T10:16:25.342Z,8.97
2018-07-25T10:18:54.173Z,9.73
2018-07-25T10:21:22.623Z,10.83
2018-07-25T10:23:51.084Z,7.87
2018-07-25T10:26:19.508Z,8.50
2018-07-25T10:28:48.200Z,6.80
2018-07-25T10:31:16.606Z,7.30
2018-07-25T10:33:45.517Z,6.00
2018-07-25T10:36:13.921Z,6.37
2018-07-25T10:38:42.442Z,6.37
2018-07-25T10:41:11.277Z,6.17
2018-07-25T10:43:39.705Z,5.80
2018-07-25T10:46:08.119Z,5.20
2018-07-25T10:48:36.533Z,5.27
2018-07-25T10:51:04.973Z,5.07
2018-07-25T10:53:33.381Z,5.00
2018-07-25T10:56:01.949Z,5.83
2018-07-25T10:58:30.319Z,5.63
2018-07-25T11:00:58.729Z,6.13
2018-07-25T11:03:27.157Z,5.60
2018-07-25T11:05:56.111Z,6.37
2018-07-25T11:08:24.753Z,6.03
2018-07-25T11:10:53.185Z,6.57
2018-07-25T11:13:21.593Z,6.17
2018-07-25T11:15:49.987Z,6.10
2018-07-25T11:18:18.393Z,6.93
2018-07-25T11:20:47.184Z,6.17
2018-07-25T11:23:15.644Z,7.13
2018-07-25T11:25:44.050Z,6.33
2018-07-25T11:28:12.479Z,5.53
2018-07-25T11:30:40.888Z,10.43
2018-07-25T11:33:09.557Z,6.80
2018-07-25T11:35:37.969Z,6.20
2018-07-25T11:38:06.421Z,5.73
2018-07-25T11:40:34.872Z,6.00
2018-07-25T11:43:03.274Z,5.83
2018-07-25T11:45:31.672Z,6.47
2018-07-25T11:48:00.130Z,5.60
2018-07-25T11:50:28.615Z,6.13
2018-07-25T11:52:57.739Z,5.97
2018-07-25T11:55:26.205Z,6.70
2018-07-25T11:57:54.557Z,5.97
2018-07-25T12:00:23.022Z,5.93
2018-07-25T12:02:52.184Z,6.17
2018-07-25T12:05:20.579Z,5.37
2018-07-25T12:07:49.206Z,5.70
2018-07-25T12:10:17.622Z,6.57
2018-07-25T12:12:46.214Z,5.30
2018-07-25T12:15:14.968Z,6.90
2018-07-25T12:17:43.412Z,6.57
2018-07-25T12:20:11.830Z,6.13
2018-07-25T12:22:40.436Z,6.83
2018-07-25T12:25:08.878Z,7.67
2018-07-25T12:27:37.436Z,6.30
2018-07-25T12:30:07.228Z,7.00
2018-07-25T12:32:35.894Z,6.93
2018-07-25T12:35:04.703Z,6.33
2018-07-25T12:37:33.110Z,7.90
2018-07-25T12:40:01.531Z,6.10
2018-07-25T12:42:29.973Z,7.43
2018-07-25T12:44:58.864Z,7.80
2018-07-25T12:47:27.268Z,6.93
2018-07-25T12:49:55.699Z,7.13
2018-07-25T12:52:24.274Z,6.83
2018-07-25T12:54:53.126Z,6.77
2018-07-25T12:57:22.102Z,8.10
2018-07-25T12:59:50.550Z,7.23
2018-07-25T13:02:18.964Z,9.00
2018-07-25T13:04:47.461Z,8.50
2018-07-25T13:07:16.035Z,10.87
2018-07-25T13:09:44.671Z,10.37
2018-07-25T13:12:13.125Z,10.10
2018-07-25T13:14:41.545Z,12.70
2018-07-25T13:17:10.189Z,9.90
2018-07-25T13:19:38.617Z,10.63
2018-07-25T13:22:07.403Z,9.30
2018-07-25T13:24:36.059Z,9.23
2018-07-25T13:27:04.931Z,10.17
2018-07-25T13:29:33.358Z,13.73
2018-07-25T13:32:01.766Z,10.70
2018-07-25T13:34:30.567Z,9.67
2018-07-25T13:36:59.550Z,10.43
2018-07-25T13:39:27.914Z,11.90
2018-07-25T13:41:56.746Z,8.33
2018-07-25T13:44:25.502Z,11.20
2018-07-25T13:46:53.930Z,9.83
2018-07-25T13:49:22.354Z,7.53
2018-07-25T13:51:50.831Z,8.17
2018-07-25T13:54:19.192Z,7.77
2018-07-25T13:56:47.702Z,9.30
2018-07-25T13:59:16.110Z,9.80
2018-07-25T14:01:44.518Z,7.97
2018-07-25T14:04:13.387Z,7.53
2018-07-25T14:06:41.812Z,7.43
2018-07-25T14:09:11.952Z,6.63
2018-07-25T14:11:41.093Z,7.63
2018-07-25T14:14:10.564Z,7.90
2018-07-25T14:16:39.002Z,5.87
2018-07-25T14:19:08.563Z,6.20
2018-07-25T14:21:36.990Z,6.07
2018-07-25T14:24:05.660Z,6.70
2018-07-25T14:26:33.940Z,6.20
2018-07-25T14:29:02.384Z,10.83
2018-07-25T14:31:30.979Z,5.40
2018-07-25T14:33:59.727Z,6.03
2018-07-25T14:36:28.467Z,6.17
2018-07-25T14:38:57.305Z,6.77
2018-07-25T14:41:25.729Z,5.47
2018-07-25T14:43:54.140Z,6.20
2018-07-25T14:46:22.885Z,8.60
2018-07-25T14:48:51.301Z,6.17
2018-07-25T14:51:20.350Z,6.37
2018-07-25T14:53:48.661Z,6.83
2018-07-25T14:56:17.073Z,6.90
2018-07-25T14:58:45.675Z,8.73
2018-07-25T15:01:14.161Z,5.73
2018-07-25T15:03:42.791Z,8.30
2018-07-25T15:06:11.626Z,7.73
2018-07-25T15:08:40.094Z,6.90
2018-07-25T15:11:08.508Z,8.80
2018-07-25T15:13:36.986Z,7.23
2018-07-25T15:16:06.010Z,6.63
2018-07-25T15:18:34.418Z,7.10
2018-07-25T15:21:02.852Z,6.37
2018-07-25T15:23:42.537Z,6.33
2018-07-25T15:26:10.958Z,6.13
2018-07-25T15:28:40.254Z,5.57
2018-07-25T15:31:08.682Z,5.53
2018-07-25T15:33:37.158Z,9.83
2018-07-25T15:36:05.609Z,6.53
2018-07-25T15:38:34.030Z,5.13
2018-07-25T15:41:02.465Z,7.90
2018-07-25T15:43:30.946Z,6.17
2018-07-25T15:45:59.364Z,6.13
2018-07-25T15:48:27.866Z,5.47
2018-07-25T15:50:56.326Z,5.07
2018-07-25T15:53:24.771Z,5.43
2018-07-25T15:55:53.210Z,6.03
2018-07-25T15:58:21.698Z,5.73
2018-07-25T16:00:50.205Z,5.83
2018-07-25T16:03:18.622Z,5.40
2018-07-25T16:05:47.067Z,6.50
2018-07-25T16:08:15.470Z,5.63
2018-07-25T16:10:43.887Z,7.73
2018-07-25T16:13:12.314Z,5.60
2018-07-25T16:15:40.764Z,6.93
2018-07-25T16:18:09.206Z,6.37
2018-07-25T16:20:37.631Z,4.50
2018-07-25T16:23:06.128Z,5.70
2018-07-25T16:25:34.547Z,6.63
2018-07-25T16:28:02.969Z,4.90
2018-07-25T16:30:31.375Z,4.63
2018-07-25T16:32:59.783Z,5.17
2018-07-25T16:35:28.194Z,5.23
2018-07-25T16:37:56.599Z,4.90
2018-07-25T16:40:25.055Z,10.70
2018-07-25T16:42:53.432Z,6.33
2018-07-25T16:45:21.868Z,5.27
2018-07-25T16:47:50.285Z,7.43
2018-07-25T16:50:18.681Z,6.57
2018-07-25T16:52:47.207Z,4.33
2018-07-25T16:55:15.621Z,4.37
2018-07-25T16:57:44.035Z,7.03
2018-07-25T17:00:12.525Z,4.70
2018-07-25T17:02:41.016Z,5.17
2018-07-25T17:05:09.419Z,4.50
2018-07-25T17:07:37.826Z,6.20
2018-07-25T17:10:06.283Z,4.83
2018-07-25T17:12:34.741Z,4.37
2018-07-25T17:15:03.215Z,5.00
2018-07-25T17:17:31.648Z,4.93
2018-07-25T17:20:00.082Z,3.83
2018-07-25T17:22:28.517Z,5.20
2018-07-25T17:24:57.200Z,4.40
2018-07-25T17:27:25.664Z,7.20
2018-07-25T17:29:54.066Z,4.47
2018-07-25T17:32:22.489Z,4.20
2018-07-25T17:34:50.894Z,4.27
2018-07-25T17:37:19.340Z,4.40
2018-07-25T17:39:47.760Z,7.30
2018-07-25T17:42:16.177Z,4.90
2018-07-25T17:44:44.627Z,5.10
2018-07-25T17:47:13.068Z,4.50
2018-07-25T17:49:41.478Z,4.47
2018-07-25T17:52:11.327Z,5.23
2018-07-25T17:54:39.806Z,5.07
2018-07-25T17:57:08.462Z,8.70
2018-07-25T17:59:37.179Z,5.70
2018-07-25T18:02:05.660Z,5.03
2018-07-25T18:04:34.082Z,5.03
2018-07-25T18:07:02.498Z,3.90
2018-07-25T18:09:30.932Z,5.10
2018-07-25T18:11:59.354Z,3.60
2018-07-25T18:14:27.766Z,3.90
2018-07-25T18:16:56.199Z,3.80
2018-07-25T18:19:24.612Z,4.60
2018-07-25T18:21:53.090Z,4.00
2018-07-25T18:24:21.718Z,5.47
2018-07-25T18:26:50.120Z,8.63
2018-07-25T18:29:18.593Z,6.30
2018-07-25T18:31:47.166Z,4.33
2018-07-25T18:34:15.605Z,5.10
2018-07-25T18:36:44.055Z,4.03
2018-07-25T18:39:12.942Z,5.57
2018-07-25T18:41:41.370Z,4.03
2018-07-25T18:44:10.750Z,4.97
2018-07-25T18:46:39.237Z,5.60
2018-07-25T18:49:08.053Z,5.53
2018-07-25T18:51:37.051Z,6.17
2018-07-25T18:54:05.531Z,5.93
2018-07-25T18:56:33.949Z,5.97
2018-07-25T18:59:02.653Z,7.10
2018-07-25T19:01:31.135Z,10.17
2018-07-25T19:03:59.984Z,6.50
2018-07-25T19:06:28.387Z,5.83
2018-07-25T19:08:56.769Z,6.20
2018-07-25T19:11:25.173Z,6.43
2018-07-25T19:13:58.877Z,5.27
2018-07-25T19:16:27.319Z,8.80
2018-07-25T19:18:55.713Z,7.60
2018-07-25T19:21:24.141Z,5.33
2018-07-25T19:23:52.929Z,7.67
2018-07-25T19:26:21.343Z,8.50
2018-07-25T19:28:49.761Z,6.00
2018-07-25T19:31:18.264Z,5.30
2018-07-25T19:33:46.676Z,6.57
2018-07-25T19:36:14.772Z,5.53
2018-07-25T19:38:43.532Z,4.13
2018-07-25T19:41:11.968Z,8.67
2018-07-25T19:43:40.440Z,4.83
2018-07-25T19:46:08.861Z,4.23
2018-07-25T19:48:37.949Z,5.83
2018-07-25T19:51:06.878Z,6.13
2018-07-25T19:53:35.315Z,6.20
2018-07-25T19:56:03.731Z,4.63
2018-07-25T19:58:32.172Z,6.40
2018-07-25T20:01:00.573Z,6.00
2018-07-25T20:03:29.149Z,5.83
2018-07-25T20:05:57.903Z,10.83
2018-07-25T20:08:26.400Z,5.20
2018-07-25T20:10:54.907Z,5.40
2018-07-25T20:13:23.380Z,6.60
2018-07-25T20:15:59.493Z,5.57
2018-07-25T20:18:29.594Z,5.77
2018-07-25T20:20:58.307Z,6.53
2018-07-25T20:23:27.773Z,5.93
2018-07-25T20:25:56.566Z,6.33
2018-07-25T20:28:26.115Z,5.73
2018-07-25T20:30:54.669Z,7.37
2018-07-25T20:33:23.680Z,5.33
2018-07-25T20:35:52.436Z,6.23
2018-07-25T20:38:20.954Z,8.20
2018-07-25T20:40:49.490Z,8.80
2018-07-25T20:43:17.887Z,5.60
2018-07-25T20:45:46.276Z,5.97
2018-07-25T20:48:14.923Z,6.50
2018-07-25T20:50:43.837Z,6.00
2018-07-25T20:53:12.394Z,6.17
2018-07-25T20:55:40.806Z,5.20
2018-07-25T20:58:09.248Z,7.50
2018-07-25T21:00:37.950Z,5.07
2018-07-25T21:03:07.698Z,5.97
2018-07-25T21:05:36.864Z,7.50
2018-07-25T21:08:05.350Z,4.83
2018-07-25T21:10:33.800Z,7.17
2018-07-25T21:13:02.268Z,6.93
2018-07-25T21:15:30.634Z,4.70
2018-07-25T21:17:59.063Z,8.20
2018-07-25T21:20:27.610Z,4.93
2018-07-25T21:22:56.043Z,5.03
2018-07-25T21:25:24.468Z,9.30
2018-07-25T21:27:53.298Z,4.37
2018-07-25T21:30:21.712Z,7.90
2018-07-25T21:32:50.107Z,6.93
2018-07-25T21:35:18.502Z,9.53
2018-07-25T21:37:46.904Z,10.83
2018-07-25T21:40:15.303Z,6.00
2018-07-25T21:42:43.686Z,8.13
2018-07-25T21:45:12.948Z,7.73
2018-07-25T21:47:41.358Z,7.03
2018-07-25T21:50:09.824Z,8.00
2018-07-25T21:52:38.222Z,9.70
2018-07-25T21:55:06.647Z,7.63
2018-07-25T21:57:35.059Z,15.63
2018-07-25T22:00:03.520Z,6.73
2018-07-25T22:02:31.919Z,6.97
2018-07-25T22:05:00.309Z,9.10
2018-07-25T22:07:28.705Z,6.43
2018-07-25T22:09:57.141Z,8.70
2018-07-25T22:12:25.566Z,9.77
2018-07-25T22:14:53.986Z,7.50
2018-07-25T22:17:22.407Z,7.00
2018-07-25T22:19:50.796Z,10.73
2018-07-25T22:22:19.191Z,8.20
2018-07-25T22:24:47.590Z,7.43
2018-07-25T22:27:16.000Z,10.33
2018-07-25T22:29:44.407Z,8.30
2018-07-25T22:32:12.832Z,11.13
2018-07-25T22:34:41.231Z,7.77
2018-07-25T22:37:09.623Z,10.83
2018-07-25T22:39:38.076Z,8.73
2018-07-25T22:42:06.502Z,8.70
2018-07-25T22:44:34.927Z,8.23
2018-07-25T22:47:03.446Z,11.60
2018-07-25T22:49:31.872Z,10.63
2018-07-25T22:52:03.474Z,7.93
2018-07-25T22:54:36.426Z,10.17
2018-07-25T22:57:08.758Z,10.50
2018-07-25T22:59:39.820Z,10.43
2018-07-25T23:02:09.062Z,10.57
2018-07-25T23:04:38.916Z,10.27
2018-07-25T23:07:07.424Z,9.57
2018-07-25T23:09:35.806Z,11.27
2018-07-25T23:12:04.198Z,10.87
2018-07-25T23:14:32.626Z,10.87
2018-07-25T23:17:01.047Z,10.40
2018-07-25T23:19:29.465Z,15.17
2018-07-25T23:21:57.869Z,11.73
2018-07-25T23:24:26.259Z,9.93
2018-07-25T23:26:54.662Z,10.50
2018-07-25T23:29:23.071Z,12.07
2018-07-25T23:31:51.490Z,12.10
2018-07-25T23:34:19.904Z,11.33
2018-07-25T23:36:48.304Z,13.43
2018-07-25T23:39:16.733Z,12.70
2018-07-25T23:41:45.142Z,13.53
2018-07-25T23:44:13.542Z,12.17
2018-07-25T23:46:41.951Z,14.17
2018-07-25T23:49:10.381Z,11.23
2018-07-25T23:51:38.792Z,13.10
2018-07-25T23:54:07.195Z,12.13
2018-07-25T23:56:35.596Z,14.23
2018-07-25T23:59:03.995Z,12.53
